sensor_id;sensor_type;location;lat;lon;timestamp;pressure;altitude;pressure_sealevel;temperature;humidity
58243;BME280;50118;53.232;8.252;2023-03-05T00:01:14;101795.13;;;0.57;100.00
58243;BME280;50118;53.232;8.252;2023-03-05T00:03:39;101787.25;;;0.57;100.00
58243;BME280;50118;53.232;8.252;2023-03-05T00:06:05;101798.53;;;0.59;100.00
58243;BME280;50118;53.232;8.252;2023-03-05T00:08:32;101792.16;;;0.66;100.00
58243;BME280;50118;53.232;8.252;2023-03-05T00:11:02;101790.22;;;0.71;100.00
58243;BME280;50118;53.232;8.252;2023-03-05T00:13:29;101779.72;;;0.71;100.00
58243;BME280;50118;53.232;8.252;2023-03-05T00:15:54;101773.59;;;0.72;100.00
58243;BME280;50118;53.232;8.252;2023-03-05T00:18:20;101776.22;;;0.72;100.00
58243;BME280;50118;53.232;8.252;2023-03-05T00:20:46;101769.13;;;0.74;100.00
58243;BME280;50118;53.232;8.252;2023-03-05T00:23:12;101778.63;;;0.79;100.00
58243;BME280;50118;53.232;8.252;2023-03-05T00:25:37;101773.38;;;0.79;100.00
58243;BME280;50118;53.232;8.252;2023-03-05T00:28:04;101769.75;;;0.81;100.00
58243;BME280;50118;53.232;8.252;2023-03-05T00:30:30;101766.25;;;0.82;100.00
58243;BME280;50118;53.232;8.252;2023-03-05T00:32:55;101768.75;;;0.85;100.00
58243;BME280;50118;53.232;8.252;2023-03-05T00:35:21;101767.78;;;0.88;100.00
58243;BME280;50118;53.232;8.252;2023-03-05T00:37:46;101766.13;;;0.85;100.00
58243;BME280;50118;53.232;8.252;2023-03-05T00:40:12;101767.88;;;0.85;100.00
58243;BME280;50118;53.232;8.252;2023-03-05T00:42:38;101759.91;;;0.88;100.00
58243;BME280;50118;53.232;8.252;2023-03-05T00:45:08;101755.34;;;0.93;100.00
58243;BME280;50118;53.232;8.252;2023-03-05T00:47:33;101753.00;;;0.85;100.00
58243;BME280;50118;53.232;8.252;2023-03-05T00:49:59;101752.72;;;0.93;100.00
58243;BME280;50118;53.232;8.252;2023-03-05T00:52:25;101752.34;;;0.80;100.00
58243;BME280;50118;53.232;8.252;2023-03-05T00:54:50;101747.00;;;0.82;100.00
58243;BME280;50118;53.232;8.252;2023-03-05T00:57:16;101744.31;;;0.83;100.00
58243;BME280;50118;53.232;8.252;2023-03-05T00:59:42;101745.41;;;0.78;100.00
58243;BME280;50118;53.232;8.252;2023-03-05T01:02:07;101736.88;;;0.72;100.00
58243;BME280;50118;53.232;8.252;2023-03-05T01:04:33;101736.81;;;0.74;100.00
58243;BME280;50118;53.232;8.252;2023-03-05T01:06:59;101725.53;;;0.72;100.00
58243;BME280;50118;53.232;8.252;2023-03-05T01:09:24;101727.13;;;0.76;100.00
58243;BME280;50118;53.232;8.252;2023-03-05T01:11:50;101729.91;;;0.71;100.00
58243;BME280;50118;53.232;8.252;2023-03-05T01:14:17;101730.16;;;0.65;100.00
58243;BME280;50118;53.232;8.252;2023-03-05T01:16:42;101715.63;;;0.57;100.00
58243;BME280;50118;53.232;8.252;2023-03-05T01:19:08;101716.47;;;0.57;100.00
58243;BME280;50118;53.232;8.252;2023-03-05T01:21:35;101713.16;;;0.52;100.00
58243;BME280;50118;53.232;8.252;2023-03-05T01:24:01;101715.19;;;0.44;100.00
58243;BME280;50118;53.232;8.252;2023-03-05T01:26:27;101713.81;;;0.33;100.00
58243;BME280;50118;53.232;8.252;2023-03-05T01:28:52;101708.78;;;0.27;100.00
58243;BME280;50118;53.232;8.252;2023-03-05T01:31:18;101709.78;;;0.25;100.00
58243;BME280;50118;53.232;8.252;2023-03-05T01:33:43;101706.31;;;0.24;100.00
58243;BME280;50118;53.232;8.252;2023-03-05T01:36:12;101715.75;;;0.28;100.00
58243;BME280;50118;53.232;8.252;2023-03-05T01:38:43;101712.13;;;0.32;100.00
58243;BME280;50118;53.232;8.252;2023-03-05T01:41:10;101706.44;;;0.45;100.00
58243;BME280;50118;53.232;8.252;2023-03-05T01:43:35;101703.03;;;0.43;100.00
58243;BME280;50118;53.232;8.252;2023-03-05T01:48:53;101701.09;;;0.48;100.00
58243;BME280;50118;53.232;8.252;2023-03-05T01:51:21;101697.59;;;0.47;100.00
58243;BME280;50118;53.232;8.252;2023-03-05T01:53:49;101693.91;;;0.53;100.00
58243;BME280;50118;53.232;8.252;2023-03-05T01:56:16;101683.41;;;0.53;100.00
58243;BME280;50118;53.232;8.252;2023-03-05T01:58:42;101677.28;;;0.52;100.00
58243;BME280;50118;53.232;8.252;2023-03-05T02:01:08;101680.97;;;0.48;100.00
58243;BME280;50118;53.232;8.252;2023-03-05T02:03:35;101669.63;;;0.48;100.00
58243;BME280;50118;53.232;8.252;2023-03-05T02:06:01;101662.09;;;0.39;100.00
58243;BME280;50118;53.232;8.252;2023-03-05T02:08:26;101658.22;;;0.25;100.00
58243;BME280;50118;53.232;8.252;2023-03-05T02:10:54;101656.50;;;0.24;100.00
58243;BME280;50118;53.232;8.252;2023-03-05T02:13:32;101658.66;;;0.13;100.00
58243;BME280;50118;53.232;8.252;2023-03-05T02:16:00;101650.00;;;0.11;100.00
58243;BME280;50118;53.232;8.252;2023-03-05T02:18:26;101651.84;;;0.09;100.00
58243;BME280;50118;53.232;8.252;2023-03-05T02:21:12;101653.41;;;0.13;100.00
58243;BME280;50118;53.232;8.252;2023-03-05T02:23:38;101652.47;;;0.15;100.00
58243;BME280;50118;53.232;8.252;2023-03-05T02:26:05;101649.91;;;0.14;100.00
58243;BME280;50118;53.232;8.252;2023-03-05T02:31:15;101632.56;;;0.10;100.00
58243;BME280;50118;53.232;8.252;2023-03-05T02:33:41;101632.66;;;0.07;100.00
58243;BME280;50118;53.232;8.252;2023-03-05T02:36:07;101635.25;;;0.08;100.00
58243;BME280;50118;53.232;8.252;2023-03-05T02:38:33;101629.31;;;0.03;100.00
58243;BME280;50118;53.232;8.252;2023-03-05T02:40:58;101629.16;;;0.08;100.00
58243;BME280;50118;53.232;8.252;2023-03-05T02:43:24;101622.34;;;0.04;100.00
58243;BME280;50118;53.232;8.252;2023-03-05T02:45:50;101616.94;;;0.07;100.00
58243;BME280;50118;53.232;8.252;2023-03-05T02:48:15;101608.25;;;0.06;100.00
58243;BME280;50118;53.232;8.252;2023-03-05T02:50:41;101615.00;;;0.12;100.00
58243;BME280;50118;53.232;8.252;2023-03-05T02:53:07;101620.16;;;0.15;100.00
58243;BME280;50118;53.232;8.252;2023-03-05T02:55:32;101610.53;;;0.15;100.00
58243;BME280;50118;53.232;8.252;2023-03-05T02:57:58;101608.72;;;0.17;100.00
58243;BME280;50118;53.232;8.252;2023-03-05T03:00:23;101603.16;;;0.25;100.00
58243;BME280;50118;53.232;8.252;2023-03-05T03:02:48;101596.19;;;0.26;100.00
58243;BME280;50118;53.232;8.252;2023-03-05T03:05:14;101609.09;;;0.30;100.00
58243;BME280;50118;53.232;8.252;2023-03-05T03:07:40;101602.84;;;0.34;100.00
58243;BME280;50118;53.232;8.252;2023-03-05T03:10:06;101608.75;;;0.40;100.00
58243;BME280;50118;53.232;8.252;2023-03-05T03:12:36;101605.09;;;0.44;100.00
58243;BME280;50118;53.232;8.252;2023-03-05T03:15:01;101599.63;;;0.50;100.00
58243;BME280;50118;53.232;8.252;2023-03-05T03:17:27;101587.59;;;0.44;100.00
58243;BME280;50118;53.232;8.252;2023-03-05T03:19:52;101589.38;;;0.44;100.00
58243;BME280;50118;53.232;8.252;2023-03-05T03:22:18;101576.44;;;0.39;100.00
58243;BME280;50118;53.232;8.252;2023-03-05T03:24:43;101574.69;;;0.40;100.00
58243;BME280;50118;53.232;8.252;2023-03-05T03:27:09;101570.50;;;0.34;100.00
58243;BME280;50118;53.232;8.252;2023-03-05T03:29:35;101565.34;;;0.32;100.00
58243;BME280;50118;53.232;8.252;2023-03-05T03:32:00;101561.06;;;0.30;100.00
58243;BME280;50118;53.232;8.252;2023-03-05T03:34:26;101560.13;;;0.32;100.00
58243;BME280;50118;53.232;8.252;2023-03-05T03:36:51;101556.94;;;0.24;100.00
58243;BME280;50118;53.232;8.252;2023-03-05T03:39:17;101557.25;;;0.15;100.00
58243;BME280;50118;53.232;8.252;2023-03-05T03:41:44;101554.22;;;0.04;100.00
58243;BME280;50118;53.232;8.252;2023-03-05T03:44:11;101557.09;;;-0.04;100.00
58243;BME280;50118;53.232;8.252;2023-03-05T03:46:37;101558.09;;;-0.07;100.00
58243;BME280;50118;53.232;8.252;2023-03-05T03:49:04;101553.69;;;-0.06;100.00
58243;BME280;50118;53.232;8.252;2023-03-05T03:51:30;101545.91;;;-0.08;100.00
58243;BME280;50118;53.232;8.252;2023-03-05T03:53:56;101544.19;;;-0.09;100.00
58243;BME280;50118;53.232;8.252;2023-03-05T03:56:21;101533.59;;;-0.06;100.00
58243;BME280;50118;53.232;8.252;2023-03-05T03:58:50;101538.81;;;-0.06;100.00
58243;BME280;50118;53.232;8.252;2023-03-05T04:01:17;101541.69;;;-0.12;100.00
58243;BME280;50118;53.232;8.252;2023-03-05T04:03:43;101544.53;;;-0.18;100.00
58243;BME280;50118;53.232;8.252;2023-03-05T04:06:08;101533.25;;;-0.20;100.00
58243;BME280;50118;53.232;8.252;2023-03-05T04:08:34;101537.91;;;-0.28;100.00
58243;BME280;50118;53.232;8.252;2023-03-05T04:11:00;101533.69;;;-0.32;100.00
58243;BME280;50118;53.232;8.252;2023-03-05T04:13:26;101528.53;;;-0.34;100.00
58243;BME280;50118;53.232;8.252;2023-03-05T04:15:52;101526.34;;;-0.23;100.00
58243;BME280;50118;53.232;8.252;2023-03-05T04:18:17;101521.91;;;-0.21;100.00
58243;BME280;50118;53.232;8.252;2023-03-05T04:20:43;101522.78;;;-0.20;100.00
58243;BME280;50118;53.232;8.252;2023-03-05T04:23:08;101516.63;;;-0.19;100.00
58243;BME280;50118;53.232;8.252;2023-03-05T04:25:33;101517.44;;;-0.17;100.00
58243;BME280;50118;53.232;8.252;2023-03-05T04:27:59;101518.66;;;-0.04;100.00
58243;BME280;50118;53.232;8.252;2023-03-05T04:30:24;101510.00;;;-0.06;100.00
58243;BME280;50118;53.232;8.252;2023-03-05T04:32:50;101512.63;;;-0.06;100.00
58243;BME280;50118;53.232;8.252;2023-03-05T04:35:15;101508.19;;;-0.04;100.00
58243;BME280;50118;53.232;8.252;2023-03-05T04:37:41;101505.47;;;-0.01;100.00
58243;BME280;50118;53.232;8.252;2023-03-05T04:40:06;101497.53;;;0.01;100.00
58243;BME280;50118;53.232;8.252;2023-03-05T04:42:32;101502.72;;;0.03;100.00
58243;BME280;50118;53.232;8.252;2023-03-05T04:44:57;101509.22;;;0.16;100.00
58243;BME280;50118;53.232;8.252;2023-03-05T04:47:23;101510.22;;;0.12;100.00
58243;BME280;50118;53.232;8.252;2023-03-05T04:49:48;101499.75;;;0.12;100.00
58243;BME280;50118;53.232;8.252;2023-03-05T04:52:15;101506.47;;;0.19;100.00
58243;BME280;50118;53.232;8.252;2023-03-05T04:54:40;101493.44;;;0.17;100.00
58243;BME280;50118;53.232;8.252;2023-03-05T04:57:06;101499.28;;;0.24;100.00
58243;BME280;50118;53.232;8.252;2023-03-05T04:59:32;101493.16;;;0.24;100.00
58243;BME280;50118;53.232;8.252;2023-03-05T05:01:57;101488.81;;;0.24;100.00
58243;BME280;50118;53.232;8.252;2023-03-05T05:04:23;101489.34;;;0.32;100.00
58243;BME280;50118;53.232;8.252;2023-03-05T05:06:48;101496.34;;;0.32;100.00
58243;BME280;50118;53.232;8.252;2023-03-05T05:09:14;101484.22;;;0.29;100.00
58243;BME280;50118;53.232;8.252;2023-03-05T05:11:39;101487.47;;;0.36;100.00
58243;BME280;50118;53.232;8.252;2023-03-05T05:14:05;101483.25;;;0.32;100.00
58243;BME280;50118;53.232;8.252;2023-03-05T05:16:31;101483.50;;;0.26;100.00
58243;BME280;50118;53.232;8.252;2023-03-05T05:18:57;101480.94;;;0.24;100.00
58243;BME280;50118;53.232;8.252;2023-03-05T05:21:22;101486.47;;;0.16;100.00
58243;BME280;50118;53.232;8.252;2023-03-05T05:23:48;101477.09;;;0.11;100.00
58243;BME280;50118;53.232;8.252;2023-03-05T05:26:13;101484.38;;;0.03;100.00
58243;BME280;50118;53.232;8.252;2023-03-05T05:28:40;101491.75;;;-0.07;100.00
58243;BME280;50118;53.232;8.252;2023-03-05T05:31:13;101485.09;;;-0.16;100.00
58243;BME280;50118;53.232;8.252;2023-03-05T05:33:39;101476.50;;;-0.20;100.00
58243;BME280;50118;53.232;8.252;2023-03-05T05:36:07;101474.97;;;-0.25;100.00
58243;BME280;50118;53.232;8.252;2023-03-05T05:38:33;101464.81;;;-0.34;100.00
58243;BME280;50118;53.232;8.252;2023-03-05T05:41:08;101471.22;;;-0.42;100.00
58243;BME280;50118;53.232;8.252;2023-03-05T05:43:34;101467.13;;;-0.49;100.00
58243;BME280;50118;53.232;8.252;2023-03-05T05:46:04;101468.22;;;-0.54;100.00
58243;BME280;50118;53.232;8.252;2023-03-05T05:48:31;101465.63;;;-0.56;100.00
58243;BME280;50118;53.232;8.252;2023-03-05T05:50:57;101457.09;;;-0.61;100.00
58243;BME280;50118;53.232;8.252;2023-03-05T05:53:23;101455.59;;;-0.68;100.00
58243;BME280;50118;53.232;8.252;2023-03-05T05:55:49;101455.50;;;-0.65;100.00
58243;BME280;50118;53.232;8.252;2023-03-05T05:58:14;101457.22;;;-0.64;100.00
58243;BME280;50118;53.232;8.252;2023-03-05T06:00:40;101463.63;;;-0.73;100.00
58243;BME280;50118;53.232;8.252;2023-03-05T06:03:06;101459.28;;;-0.74;100.00
58243;BME280;50118;53.232;8.252;2023-03-05T06:05:32;101459.44;;;-0.79;100.00
58243;BME280;50118;53.232;8.252;2023-03-05T06:07:57;101463.00;;;-0.80;100.00
58243;BME280;50118;53.232;8.252;2023-03-05T06:10:23;101464.56;;;-0.76;100.00
58243;BME280;50118;53.232;8.252;2023-03-05T06:12:48;101461.16;;;-0.78;100.00
58243;BME280;50118;53.232;8.252;2023-03-05T06:15:16;101465.31;;;-0.72;100.00
58243;BME280;50118;53.232;8.252;2023-03-05T06:17:44;101467.78;;;-0.67;100.00
58243;BME280;50118;53.232;8.252;2023-03-05T06:20:10;101465.97;;;-0.65;100.00
58243;BME280;50118;53.232;8.252;2023-03-05T06:22:36;101465.97;;;-0.65;100.00
58243;BME280;50118;53.232;8.252;2023-03-05T06:25:03;101469.25;;;-0.60;100.00
58243;BME280;50118;53.232;8.252;2023-03-05T06:27:29;101473.34;;;-0.53;100.00
58243;BME280;50118;53.232;8.252;2023-03-05T06:29:54;101475.81;;;-0.48;100.00
58243;BME280;50118;53.232;8.252;2023-03-05T06:32:21;101481.00;;;-0.47;100.00
58243;BME280;50118;53.232;8.252;2023-03-05T06:34:46;101465.97;;;-0.42;100.00
58243;BME280;50118;53.232;8.252;2023-03-05T06:37:12;101464.81;;;-0.34;100.00
58243;BME280;50118;53.232;8.252;2023-03-05T06:39:37;101476.66;;;-0.24;100.00
58243;BME280;50118;53.232;8.252;2023-03-05T06:42:03;101458.16;;;-0.20;100.00
58243;BME280;50118;53.232;8.252;2023-03-05T06:44:28;101465.97;;;-0.18;100.00
58243;BME280;50118;53.232;8.252;2023-03-05T06:46:54;101469.38;;;-0.16;100.00
58243;BME280;50118;53.232;8.252;2023-03-05T06:49:19;101463.13;;;-0.12;100.00
58243;BME280;50118;53.232;8.252;2023-03-05T06:51:45;101468.94;;;-0.05;100.00
58243;BME280;50118;53.232;8.252;2023-03-05T06:54:12;101467.94;;;-0.01;100.00
58243;BME280;50118;53.232;8.252;2023-03-05T06:56:39;101476.59;;;0.01;100.00
58243;BME280;50118;53.232;8.252;2023-03-05T06:59:05;101471.06;;;0.09;100.00
58243;BME280;50118;53.232;8.252;2023-03-05T07:01:31;101463.31;;;0.06;100.00
58243;BME280;50118;53.232;8.252;2023-03-05T07:03:57;101464.66;;;0.16;100.00
58243;BME280;50118;53.232;8.252;2023-03-05T07:06:25;101464.06;;;0.31;100.00
58243;BME280;50118;53.232;8.252;2023-03-05T07:08:54;101460.16;;;0.42;100.00
58243;BME280;50118;53.232;8.252;2023-03-05T07:11:20;101465.94;;;0.50;100.00
58243;BME280;50118;53.232;8.252;2023-03-05T07:13:46;101466.16;;;0.66;100.00
58243;BME280;50118;53.232;8.252;2023-03-05T07:16:15;101455.19;;;0.77;100.00
58243;BME280;50118;53.232;8.252;2023-03-05T07:18:41;101456.91;;;0.98;100.00
58243;BME280;50118;53.232;8.252;2023-03-05T07:21:07;101457.56;;;1.03;100.00
58243;BME280;50118;53.232;8.252;2023-03-05T07:23:34;101455.88;;;1.23;100.00
58243;BME280;50118;53.232;8.252;2023-03-05T07:26:03;101454.38;;;1.36;100.00
58243;BME280;50118;53.232;8.252;2023-03-05T07:28:29;101463.31;;;1.32;100.00
58243;BME280;50118;53.232;8.252;2023-03-05T07:30:57;101474.50;;;1.17;100.00
58243;BME280;50118;53.232;8.252;2023-03-05T07:33:24;101481.19;;;1.03;100.00
58243;BME280;50118;53.232;8.252;2023-03-05T07:35:50;101466.38;;;1.02;100.00
58243;BME280;50118;53.232;8.252;2023-03-05T07:38:15;101464.91;;;0.95;100.00
58243;BME280;50118;53.232;8.252;2023-03-05T07:40:44;101467.28;;;0.81;100.00
58243;BME280;50118;53.232;8.252;2023-03-05T07:43:09;101467.75;;;0.90;100.00
58243;BME280;50118;53.232;8.252;2023-03-05T07:45:38;101468.72;;;0.88;100.00
58243;BME280;50118;53.232;8.252;2023-03-05T07:48:05;101458.09;;;0.91;100.00
58243;BME280;50118;53.232;8.252;2023-03-05T07:50:30;101459.00;;;1.10;100.00
58243;BME280;50118;53.232;8.252;2023-03-05T07:52:57;101461.56;;;1.12;100.00
58243;BME280;50118;53.232;8.252;2023-03-05T07:55:23;101458.50;;;1.23;100.00
58243;BME280;50118;53.232;8.252;2023-03-05T07:57:48;101444.31;;;1.46;100.00
58243;BME280;50118;53.232;8.252;2023-03-05T08:00:14;101442.22;;;1.54;100.00
58243;BME280;50118;53.232;8.252;2023-03-05T08:02:40;101440.28;;;1.96;100.00
58243;BME280;50118;53.232;8.252;2023-03-05T08:05:05;101439.66;;;2.81;100.00
58243;BME280;50118;53.232;8.252;2023-03-05T08:07:31;101440.38;;;3.67;100.00
58243;BME280;50118;53.232;8.252;2023-03-05T08:09:56;101446.75;;;4.27;100.00
58243;BME280;50118;53.232;8.252;2023-03-05T08:12:21;101441.47;;;4.27;100.00
58243;BME280;50118;53.232;8.252;2023-03-05T08:14:47;101426.09;;;4.03;100.00
58243;BME280;50118;53.232;8.252;2023-03-05T08:17:13;101432.16;;;4.05;100.00
58243;BME280;50118;53.232;8.252;2023-03-05T08:19:38;101427.19;;;3.35;100.00
58243;BME280;50118;53.232;8.252;2023-03-05T08:22:04;101426.59;;;3.13;100.00
58243;BME280;50118;53.232;8.252;2023-03-05T08:24:29;101425.50;;;3.17;100.00
58243;BME280;50118;53.232;8.252;2023-03-05T08:26:56;101428.59;;;3.08;100.00
58243;BME280;50118;53.232;8.252;2023-03-05T08:29:21;101427.28;;;3.16;100.00
58243;BME280;50118;53.232;8.252;2023-03-05T08:31:47;101425.16;;;3.23;100.00
58243;BME280;50118;53.232;8.252;2023-03-05T08:34:13;101418.47;;;3.17;100.00
58243;BME280;50118;53.232;8.252;2023-03-05T08:36:39;101423.31;;;2.92;100.00
58243;BME280;50118;53.232;8.252;2023-03-05T08:39:04;101422.00;;;2.83;100.00
58243;BME280;50118;53.232;8.252;2023-03-05T08:41:34;101428.81;;;2.70;100.00
58243;BME280;50118;53.232;8.252;2023-03-05T08:44:00;101435.13;;;2.48;100.00
58243;BME280;50118;53.232;8.252;2023-03-05T08:46:25;101435.41;;;2.24;100.00
58243;BME280;50118;53.232;8.252;2023-03-05T08:48:51;101434.38;;;1.91;100.00
58243;BME280;50118;53.232;8.252;2023-03-05T08:51:19;101433.25;;;1.58;100.00
58243;BME280;50118;53.232;8.252;2023-03-05T08:53:45;101426.19;;;1.60;100.00
58243;BME280;50118;53.232;8.252;2023-03-05T08:56:11;101418.25;;;1.62;100.00
58243;BME280;50118;53.232;8.252;2023-03-05T08:58:37;101420.94;;;1.60;100.00
58243;BME280;50118;53.232;8.252;2023-03-05T09:01:02;101421.97;;;1.75;100.00
58243;BME280;50118;53.232;8.252;2023-03-05T09:03:28;101412.53;;;1.71;100.00
58243;BME280;50118;53.232;8.252;2023-03-05T09:05:57;101412.66;;;1.87;100.00
58243;BME280;50118;53.232;8.252;2023-03-05T09:08:23;101411.81;;;1.86;100.00
58243;BME280;50118;53.232;8.252;2023-03-05T09:10:48;101416.63;;;1.96;100.00
58243;BME280;50118;53.232;8.252;2023-03-05T09:13:14;101413.84;;;1.99;100.00
58243;BME280;50118;53.232;8.252;2023-03-05T09:15:40;101408.09;;;2.10;100.00
58243;BME280;50118;53.232;8.252;2023-03-05T09:18:05;101407.16;;;2.47;100.00
58243;BME280;50118;53.232;8.252;2023-03-05T09:20:33;101392.69;;;2.38;100.00
58243;BME280;50118;53.232;8.252;2023-03-05T09:22:59;101385.47;;;2.59;100.00
58243;BME280;50118;53.232;8.252;2023-03-05T09:25:24;101386.66;;;3.05;100.00
58243;BME280;50118;53.232;8.252;2023-03-05T09:27:50;101383.69;;;3.11;100.00
58243;BME280;50118;53.232;8.252;2023-03-05T09:30:15;101377.69;;;3.09;100.00
58243;BME280;50118;53.232;8.252;2023-03-05T09:32:41;101371.03;;;3.02;100.00
58243;BME280;50118;53.232;8.252;2023-03-05T09:35:07;101367.44;;;3.52;100.00
58243;BME280;50118;53.232;8.252;2023-03-05T09:37:33;101363.81;;;3.70;100.00
58243;BME280;50118;53.232;8.252;2023-03-05T09:39:58;101363.97;;;3.67;100.00
58243;BME280;50118;53.232;8.252;2023-03-05T09:45:25;101352.22;;;3.89;100.00
58243;BME280;50118;53.232;8.252;2023-03-05T09:48:01;101349.25;;;4.25;100.00
58243;BME280;50118;53.232;8.252;2023-03-05T09:50:47;101351.53;;;4.62;100.00
58243;BME280;50118;53.232;8.252;2023-03-05T09:55:51;101340.16;;;4.45;100.00
58243;BME280;50118;53.232;8.252;2023-03-05T09:58:39;101341.72;;;4.49;100.00
58243;BME280;50118;53.232;8.252;2023-03-05T10:01:21;101343.97;;;4.56;100.00
58243;BME280;50118;53.232;8.252;2023-03-05T10:06:25;101342.69;;;4.92;100.00
58243;BME280;50118;53.232;8.252;2023-03-05T10:08:57;101337.66;;;4.73;100.00
58243;BME280;50118;53.232;8.252;2023-03-05T10:13:55;101334.19;;;4.86;100.00
58243;BME280;50118;53.232;8.252;2023-03-05T10:19:16;101323.53;;;5.17;100.00
58243;BME280;50118;53.232;8.252;2023-03-05T10:27:20;101319.94;;;5.32;100.00
58243;BME280;50118;53.232;8.252;2023-03-05T10:38:22;101298.53;;;5.22;100.00
58243;BME280;50118;53.232;8.252;2023-03-05T10:40:53;101295.56;;;4.85;100.00
58243;BME280;50118;53.232;8.252;2023-03-05T10:43:35;101303.91;;;4.49;100.00
58243;BME280;50118;53.232;8.252;2023-03-05T10:46:02;101315.13;;;4.08;100.00
58243;BME280;50118;53.232;8.252;2023-03-05T10:48:38;101320.25;;;3.95;100.00
58243;BME280;50118;53.232;8.252;2023-03-05T10:54:23;101318.13;;;3.06;100.00
58243;BME280;50118;53.232;8.252;2023-03-05T10:59:37;101316.28;;;2.75;100.00
58243;BME280;50118;53.232;8.252;2023-03-05T11:02:06;101303.53;;;3.01;100.00
58243;BME280;50118;53.232;8.252;2023-03-05T11:04:35;101293.25;;;3.44;100.00
58243;BME280;50118;53.232;8.252;2023-03-05T11:12:26;101278.56;;;4.46;100.00
58243;BME280;50118;53.232;8.252;2023-03-05T11:23:12;101268.66;;;5.08;100.00
58243;BME280;50118;53.232;8.252;2023-03-05T11:25:54;101263.00;;;5.41;100.00
58243;BME280;50118;53.232;8.252;2023-03-05T11:28:23;101266.53;;;5.41;100.00
58243;BME280;50118;53.232;8.252;2023-03-05T11:31:02;101262.34;;;5.52;100.00
58243;BME280;50118;53.232;8.252;2023-03-05T11:33:29;101247.06;;;6.10;100.00
58243;BME280;50118;53.232;8.252;2023-03-05T11:36:36;101248.44;;;5.48;100.00
58243;BME280;50118;53.232;8.252;2023-03-05T11:44:09;101238.00;;;5.19;100.00
58243;BME280;50118;53.232;8.252;2023-03-05T11:46:45;101250.66;;;4.71;100.00
58243;BME280;50118;53.232;8.252;2023-03-05T11:49:15;101246.53;;;4.53;100.00
58243;BME280;50118;53.232;8.252;2023-03-05T11:51:51;101241.13;;;4.25;100.00
58243;BME280;50118;53.232;8.252;2023-03-05T11:54:46;101244.41;;;4.00;100.00
58243;BME280;50118;53.232;8.252;2023-03-05T11:57:11;101229.84;;;3.79;100.00
58243;BME280;50118;53.232;8.252;2023-03-05T11:59:39;101227.28;;;3.77;100.00
58243;BME280;50118;53.232;8.252;2023-03-05T12:02:18;101217.16;;;3.39;100.00
58243;BME280;50118;53.232;8.252;2023-03-05T12:04:44;101219.13;;;3.82;100.00
58243;BME280;50118;53.232;8.252;2023-03-05T12:07:12;101204.06;;;3.98;100.00
58243;BME280;50118;53.232;8.252;2023-03-05T12:09:43;101201.56;;;4.25;100.00
58243;BME280;50118;53.232;8.252;2023-03-05T12:23:18;101201.56;;;4.83;100.00
58243;BME280;50118;53.232;8.252;2023-03-05T12:25:48;101192.06;;;4.23;100.00
58243;BME280;50118;53.232;8.252;2023-03-05T12:28:16;101171.44;;;4.29;100.00
58243;BME280;50118;53.232;8.252;2023-03-05T12:31:04;101173.97;;;4.60;100.00
58243;BME280;50118;53.232;8.252;2023-03-05T12:33:32;101167.19;;;4.56;100.00
58243;BME280;50118;53.232;8.252;2023-03-05T12:38:41;101150.13;;;5.03;100.00
58243;BME280;50118;53.232;8.252;2023-03-05T12:44:09;101147.41;;;5.17;100.00
58243;BME280;50118;53.232;8.252;2023-03-05T12:51:54;101131.56;;;5.17;100.00
58243;BME280;50118;53.232;8.252;2023-03-05T12:56:49;101142.75;;;4.81;100.00
58243;BME280;50118;53.232;8.252;2023-03-05T12:59:19;101146.81;;;4.72;100.00
58243;BME280;50118;53.232;8.252;2023-03-05T13:01:51;101140.34;;;4.49;100.00
58243;BME280;50118;53.232;8.252;2023-03-05T13:04:24;101145.16;;;4.14;100.00
58243;BME280;50118;53.232;8.252;2023-03-05T13:07:00;101146.28;;;3.95;100.00
58243;BME280;50118;53.232;8.252;2023-03-05T13:09:27;101125.25;;;3.79;100.00
58243;BME280;50118;53.232;8.252;2023-03-05T13:11:56;101119.72;;;3.98;100.00
58243;BME280;50118;53.232;8.252;2023-03-05T13:14:25;101120.50;;;4.15;100.00
58243;BME280;50118;53.232;8.252;2023-03-05T13:16:51;101111.91;;;4.25;100.00
58243;BME280;50118;53.232;8.252;2023-03-05T13:19:17;101108.50;;;4.52;100.00
58243;BME280;50118;53.232;8.252;2023-03-05T13:21:43;101107.06;;;4.61;100.00
58243;BME280;50118;53.232;8.252;2023-03-05T13:24:16;101095.72;;;4.73;100.00
58243;BME280;50118;53.232;8.252;2023-03-05T13:26:42;101097.06;;;4.93;100.00
58243;BME280;50118;53.232;8.252;2023-03-05T13:29:14;101103.97;;;4.81;100.00
58243;BME280;50118;53.232;8.252;2023-03-05T13:31:54;101101.31;;;4.54;100.00
58243;BME280;50118;53.232;8.252;2023-03-05T13:34:27;101102.84;;;4.58;100.00
58243;BME280;50118;53.232;8.252;2023-03-05T13:37:15;101086.69;;;4.63;100.00
58243;BME280;50118;53.232;8.252;2023-03-05T13:39:48;101079.38;;;4.54;100.00
58243;BME280;50118;53.232;8.252;2023-03-05T13:42:17;101074.59;;;4.73;100.00
58243;BME280;50118;53.232;8.252;2023-03-05T13:44:52;101067.09;;;4.94;100.00
58243;BME280;50118;53.232;8.252;2023-03-05T13:47:20;101061.38;;;4.88;100.00
58243;BME280;50118;53.232;8.252;2023-03-05T13:49:46;101062.66;;;4.95;100.00
58243;BME280;50118;53.232;8.252;2023-03-05T13:52:30;101058.25;;;5.08;100.00
58243;BME280;50118;53.232;8.252;2023-03-05T13:54:57;101054.88;;;5.06;100.00
58243;BME280;50118;53.232;8.252;2023-03-05T13:57:41;101064.28;;;5.10;100.00
58243;BME280;50118;53.232;8.252;2023-03-05T14:02:52;101075.63;;;4.29;100.00
58243;BME280;50118;53.232;8.252;2023-03-05T14:05:18;101070.13;;;3.90;100.00
58243;BME280;50118;53.232;8.252;2023-03-05T14:07:48;101066.25;;;3.53;100.00
58243;BME280;50118;53.232;8.252;2023-03-05T14:10:36;101069.69;;;3.39;100.00
58243;BME280;50118;53.232;8.252;2023-03-05T14:13:11;101068.56;;;3.43;100.00
58243;BME280;50118;53.232;8.252;2023-03-05T14:15:38;101060.00;;;3.54;100.00